VTK3034 UHMM-RKSI
Flight info
| Callsign | VTK3034 |
|---|---|
| Flight time | 4h 12m |
| Altitude | 36000 |
| Route | N0500F360 BANOT A218 UNLUN L160 NA N222 LALET L731 NULAR L822 KANSU Y233 BUSKO Y437 LESBU B467 KAE Y697 BIKSI |
| Aircraft | A343/H-SDE1E2E3FGHIJ2J3J4J5M1RWXYZ/L |
Departure
| Time | 2026-04-24 21:29 |
|---|---|
| Airport | Sokol Airport (UHMM) |
Arrival
| Time | 2026-04-25 01:41 |
|---|---|
| Airport | Incheon International Airport (RKSI) |
| Time | Latitude | Longitude | Altitude | Speed | Heading |
|---|---|---|---|---|---|
| 2026-04-24 21:12 | 59.91327 | 150.73479 | 587 ft | 0 kts | 181° |
| 2026-04-24 21:24 | 59.91326 | 150.73479 | 586 ft | 1 kts | 181° |
| 2026-04-24 21:24 | 59.91304 | 150.73466 | 586 ft | 3 kts | 221° |
| 2026-04-24 21:24 | 59.91275 | 150.73397 | 589 ft | 10 kts | 230° |
| 2026-04-24 21:24 | 59.91213 | 150.73249 | 587 ft | 18 kts | 230° |
| 2026-04-24 21:25 | 59.91124 | 150.73026 | 589 ft | 23 kts | 232° |
| 2026-04-24 21:25 | 59.91034 | 150.72733 | 588 ft | 23 kts | 268° |
| 2026-04-24 21:25 | 59.91068 | 150.72405 | 585 ft | 28 kts | 281° |
| 2026-04-24 21:25 | 59.91088 | 150.71993 | 585 ft | 32 kts | 271° |
| 2026-04-24 21:26 | 59.91092 | 150.71527 | 588 ft | 35 kts | 272° |
| 2026-04-24 21:26 | 59.91101 | 150.71045 | 589 ft | 34 kts | 272° |
| 2026-04-24 21:26 | 59.91116 | 150.70578 | 587 ft | 33 kts | 274° |
| 2026-04-24 21:26 | 59.91135 | 150.70124 | 585 ft | 32 kts | 275° |
| 2026-04-24 21:27 | 59.91153 | 150.69697 | 588 ft | 30 kts | 274° |
| 2026-04-24 21:27 | 59.91160 | 150.69304 | 589 ft | 28 kts | 272° |
| 2026-04-24 21:27 | 59.91195 | 150.69007 | 587 ft | 5 kts | 355° |
| 2026-04-24 21:27 | 59.91199 | 150.69029 | 587 ft | 2 kts | 70° |
| 2026-04-24 21:28 | 59.91186 | 150.69084 | 587 ft | 9 kts | 112° |
| 2026-04-24 21:28 | 59.91165 | 150.69362 | 590 ft | 40 kts | 96° |
| 2026-04-24 21:28 | 59.91134 | 150.70280 | 589 ft | 91 kts | 91° |
| 2026-04-24 21:28 | 59.91106 | 150.71823 | 589 ft | 132 kts | 93° |
| 2026-04-24 21:29 | 59.91052 | 150.73874 | 617 ft | 164 kts | 91° |
| 2026-04-24 21:29 | 59.91003 | 150.76176 | 962 ft | 171 kts | 90° |
| 2026-04-24 21:29 | 59.90945 | 150.78545 | 1488 ft | 172 kts | 89° |
| 2026-04-24 21:29 | 59.90875 | 150.80977 | 1990 ft | 185 kts | 88° |
| 2026-04-24 21:30 | 59.90803 | 150.83729 | 2219 ft | 215 kts | 90° |
| 2026-04-24 21:30 | 59.90716 | 150.86851 | 2721 ft | 234 kts | 89° |
| 2026-04-24 21:30 | 59.90619 | 150.90123 | 3567 ft | 238 kts | 89° |
| 2026-04-24 21:30 | 59.90520 | 150.93406 | 4536 ft | 236 kts | 87° |
| 2026-04-24 21:31 | 59.90422 | 150.96644 | 5539 ft | 234 kts | 89° |
| 2026-04-24 21:31 | 59.90326 | 150.99914 | 6307 ft | 241 kts | 90° |
| 2026-04-24 21:31 | 59.90161 | 151.03273 | 6973 ft | 250 kts | 98° |
| 2026-04-24 21:31 | 59.89479 | 151.06522 | 7691 ft | 263 kts | 122° |
| 2026-04-24 21:32 | 59.88084 | 151.08960 | 8415 ft | 276 kts | 150° |
| 2026-04-24 21:32 | 59.86194 | 151.09843 | 9120 ft | 288 kts | 180° |
| 2026-04-24 21:32 | 59.84260 | 151.08767 | 9839 ft | 295 kts | 212° |
| 2026-04-24 21:32 | 59.82812 | 151.05929 | 10392 ft | 300 kts | 242° |
| 2026-04-24 21:33 | 59.82151 | 151.01970 | 10677 ft | 310 kts | 265° |
| 2026-04-24 21:33 | 59.81958 | 150.99105 | 10881 ft | 321 kts | 266° |
| 2026-04-24 21:33 | 59.81594 | 150.93036 | 11272 ft | 342 kts | 266° |
| 2026-04-24 21:33 | 59.81283 | 150.88256 | 11569 ft | 357 kts | 266° |
| 2026-04-24 21:34 | 59.80944 | 150.83304 | 12004 ft | 367 kts | 265° |
| 2026-04-24 21:34 | 59.80586 | 150.78247 | 12588 ft | 373 kts | 266° |
| 2026-04-24 21:34 | 59.80218 | 150.73133 | 13242 ft | 377 kts | 266° |
| 2026-04-24 21:34 | 59.79842 | 150.67974 | 13891 ft | 380 kts | 266° |
| 2026-04-24 21:35 | 59.79462 | 150.62769 | 14471 ft | 384 kts | 266° |
| 2026-04-24 21:35 | 59.79074 | 150.57505 | 15009 ft | 388 kts | 266° |
| 2026-04-24 21:35 | 59.78679 | 150.52193 | 15557 ft | 392 kts | 266° |
| 2026-04-24 21:35 | 59.78279 | 150.46824 | 16059 ft | 397 kts | 267° |
| 2026-04-24 21:36 | 59.77871 | 150.41380 | 16568 ft | 401 kts | 266° |
| 2026-04-24 21:36 | 59.77457 | 150.35904 | 17169 ft | 404 kts | 267° |
| 2026-04-24 21:36 | 59.77037 | 150.30369 | 17733 ft | 408 kts | 267° |
| 2026-04-24 21:36 | 59.76610 | 150.24790 | 18287 ft | 412 kts | 267° |
| 2026-04-24 21:37 | 59.76178 | 150.19165 | 18767 ft | 416 kts | 267° |
| 2026-04-24 21:37 | 59.75739 | 150.13478 | 19253 ft | 419 kts | 267° |
| 2026-04-24 21:37 | 59.75294 | 150.07760 | 19745 ft | 422 kts | 267° |
| 2026-04-24 21:37 | 59.74843 | 150.01998 | 20227 ft | 425 kts | 267° |
| 2026-04-24 21:38 | 59.74387 | 149.96195 | 20706 ft | 428 kts | 267° |
| 2026-04-24 21:38 | 59.73926 | 149.90363 | 21179 ft | 431 kts | 267° |
| 2026-04-24 21:38 | 59.73457 | 149.84470 | 21638 ft | 434 kts | 267° |
| 2026-04-24 21:38 | 59.72984 | 149.78549 | 22059 ft | 437 kts | 266° |
| 2026-04-24 21:39 | 59.72505 | 149.72597 | 22511 ft | 440 kts | 266° |
| 2026-04-24 21:39 | 59.72018 | 149.66592 | 22939 ft | 443 kts | 266° |
| 2026-04-24 21:39 | 59.71526 | 149.60559 | 23379 ft | 446 kts | 266° |
| 2026-04-24 21:39 | 59.71029 | 149.54488 | 23778 ft | 449 kts | 266° |
| 2026-04-24 21:40 | 59.70525 | 149.48381 | 24113 ft | 452 kts | 266° |
| 2026-04-24 21:40 | 59.70015 | 149.42235 | 24458 ft | 454 kts | 266° |
| 2026-04-24 21:40 | 59.69501 | 149.36075 | 24798 ft | 457 kts | 265° |
| 2026-04-24 21:40 | 59.68978 | 149.29867 | 25135 ft | 459 kts | 265° |
| 2026-04-24 21:41 | 59.68273 | 149.23666 | 25456 ft | 466 kts | 258° |
| 2026-04-24 21:41 | 59.67079 | 149.17660 | 25779 ft | 475 kts | 247° |
| 2026-04-24 21:41 | 59.65341 | 149.12080 | 26068 ft | 483 kts | 236° |
| 2026-04-24 21:41 | 59.63083 | 149.07106 | 26369 ft | 489 kts | 226° |
| 2026-04-24 21:42 | 59.60560 | 149.02594 | 26679 ft | 493 kts | 223° |
| 2026-04-24 21:42 | 59.57920 | 148.98251 | 26981 ft | 496 kts | 221° |
| 2026-04-24 21:42 | 59.55225 | 148.93979 | 27275 ft | 499 kts | 221° |
| 2026-04-24 21:42 | 59.52515 | 148.89718 | 27562 ft | 501 kts | 221° |
| 2026-04-24 21:43 | 59.49800 | 148.85430 | 27845 ft | 503 kts | 221° |
| 2026-04-24 21:43 | 59.47078 | 148.81099 | 28108 ft | 505 kts | 221° |
| 2026-04-24 21:43 | 59.44355 | 148.76740 | 28377 ft | 507 kts | 221° |
| 2026-04-24 21:43 | 59.41618 | 148.72344 | 28609 ft | 510 kts | 222° |
| 2026-04-24 21:44 | 59.38870 | 148.67929 | 28723 ft | 515 kts | 222° |
| 2026-04-24 21:44 | 59.36097 | 148.63475 | 28979 ft | 517 kts | 222° |
| 2026-04-24 21:44 | 59.33322 | 148.59029 | 29366 ft | 516 kts | 222° |
| 2026-04-24 21:44 | 59.30552 | 148.54601 | 29760 ft | 515 kts | 222° |
| 2026-04-24 21:45 | 59.27787 | 148.50181 | 30172 ft | 515 kts | 222° |
| 2026-04-24 21:45 | 59.25017 | 148.45772 | 30523 ft | 513 kts | 222° |
| 2026-04-24 21:45 | 59.22266 | 148.41408 | 30832 ft | 512 kts | 222° |
| 2026-04-24 21:45 | 59.19494 | 148.37025 | 31075 ft | 513 kts | 222° |
| 2026-04-24 21:46 | 59.16727 | 148.32661 | 31276 ft | 513 kts | 222° |
| 2026-04-24 21:46 | 59.13948 | 148.28286 | 31444 ft | 515 kts | 222° |
| 2026-04-24 21:46 | 59.11164 | 148.23911 | 31677 ft | 516 kts | 222° |
| 2026-04-24 21:46 | 59.08379 | 148.19542 | 31954 ft | 515 kts | 222° |
| 2026-04-24 21:47 | 59.05602 | 148.15194 | 32224 ft | 515 kts | 222° |
| 2026-04-24 21:47 | 59.03743 | 148.12295 | 32393 ft | 514 kts | 222° |
| 2026-04-24 21:47 | 59.00030 | 148.06508 | 32732 ft | 514 kts | 222° |
| 2026-04-24 21:47 | 58.97246 | 148.02174 | 32986 ft | 514 kts | 222° |
| 2026-04-24 21:48 | 58.94466 | 147.97854 | 33235 ft | 514 kts | 222° |
| 2026-04-24 21:48 | 58.91681 | 147.93536 | 33429 ft | 514 kts | 222° |
| 2026-04-24 21:48 | 58.88897 | 147.89232 | 33636 ft | 514 kts | 222° |
| 2026-04-24 21:48 | 58.86108 | 147.84928 | 33897 ft | 513 kts | 222° |
| 2026-04-24 21:49 | 58.83320 | 147.80636 | 34082 ft | 514 kts | 222° |
| 2026-04-24 21:49 | 58.77714 | 147.72030 | 34095 ft | 515 kts | 221° |
| 2026-04-24 21:50 | 58.72111 | 147.63487 | 34097 ft | 514 kts | 221° |
| 2026-04-24 21:50 | 58.66508 | 147.54966 | 34097 ft | 514 kts | 221° |
| 2026-04-24 21:51 | 58.60902 | 147.46468 | 34097 ft | 514 kts | 221° |
| 2026-04-24 21:51 | 58.55293 | 147.38006 | 34089 ft | 514 kts | 221° |
| 2026-04-24 21:52 | 58.49672 | 147.29564 | 34091 ft | 515 kts | 221° |
| 2026-04-24 21:52 | 58.44047 | 147.21153 | 34091 ft | 514 kts | 221° |
| 2026-04-24 21:53 | 58.38417 | 147.12770 | 34089 ft | 514 kts | 221° |
| 2026-04-24 21:53 | 58.32787 | 147.04423 | 34086 ft | 514 kts | 221° |
| 2026-04-24 21:54 | 58.27156 | 146.96105 | 34089 ft | 514 kts | 221° |
| 2026-04-24 21:54 | 58.21521 | 146.87818 | 34089 ft | 514 kts | 221° |
| 2026-04-24 21:55 | 58.15872 | 146.79545 | 34044 ft | 514 kts | 221° |
| 2026-04-24 21:55 | 58.10220 | 146.71307 | 34082 ft | 515 kts | 221° |
| 2026-04-24 21:56 | 58.04549 | 146.63070 | 34086 ft | 514 kts | 221° |
| 2026-04-24 21:56 | 57.98887 | 146.54874 | 34086 ft | 514 kts | 221° |
| 2026-04-24 21:57 | 57.93225 | 146.46713 | 34087 ft | 514 kts | 221° |
| 2026-04-24 21:57 | 57.87556 | 146.38582 | 34081 ft | 515 kts | 221° |
| 2026-04-24 21:58 | 57.81859 | 146.30438 | 34085 ft | 516 kts | 221° |
| 2026-04-24 21:58 | 57.76140 | 146.22296 | 34088 ft | 517 kts | 221° |
| 2026-04-24 21:59 | 57.70423 | 146.14192 | 34092 ft | 517 kts | 221° |
| 2026-04-24 21:59 | 57.64703 | 146.06118 | 34060 ft | 516 kts | 221° |
| 2026-04-24 22:00 | 57.59938 | 145.99417 | 34093 ft | 517 kts | 221° |
| 2026-04-24 22:00 | 57.53240 | 145.90034 | 34098 ft | 517 kts | 221° |
| 2026-04-24 22:01 | 57.47503 | 145.82031 | 34100 ft | 517 kts | 221° |
| 2026-04-24 22:01 | 57.41756 | 145.74048 | 34098 ft | 517 kts | 221° |
| 2026-04-24 22:02 | 57.36003 | 145.66091 | 34100 ft | 516 kts | 221° |
| 2026-04-24 22:02 | 57.30258 | 145.58173 | 34102 ft | 516 kts | 221° |
| 2026-04-24 22:03 | 57.24507 | 145.50278 | 34103 ft | 516 kts | 221° |
| 2026-04-24 22:03 | 57.18748 | 145.42403 | 34108 ft | 516 kts | 221° |
| 2026-04-24 22:04 | 57.12989 | 145.34561 | 34102 ft | 516 kts | 221° |
| 2026-04-24 22:04 | 57.07233 | 145.26757 | 34111 ft | 514 kts | 221° |
| 2026-04-24 22:05 | 57.01483 | 145.18989 | 34111 ft | 514 kts | 221° |
| 2026-04-24 22:05 | 56.95729 | 145.11244 | 34116 ft | 514 kts | 221° |
| 2026-04-24 22:06 | 56.89966 | 145.03517 | 34083 ft | 515 kts | 221° |
| 2026-04-24 22:06 | 56.84194 | 144.95812 | 34113 ft | 513 kts | 221° |
| 2026-04-24 22:07 | 56.78439 | 144.88158 | 34116 ft | 513 kts | 221° |
| 2026-04-24 22:07 | 56.72676 | 144.80523 | 34116 ft | 513 kts | 221° |
| 2026-04-24 22:08 | 56.66909 | 144.72912 | 34116 ft | 513 kts | 221° |
| 2026-04-24 22:08 | 56.61147 | 144.65336 | 34115 ft | 511 kts | 220° |
| 2026-04-24 22:09 | 56.55392 | 144.57802 | 34121 ft | 510 kts | 220° |
| 2026-04-24 22:09 | 56.49646 | 144.50305 | 34121 ft | 510 kts | 220° |
| 2026-04-24 22:10 | 56.43890 | 144.42823 | 34125 ft | 510 kts | 220° |
| 2026-04-24 22:10 | 56.38138 | 144.35371 | 34122 ft | 509 kts | 220° |
| 2026-04-24 22:11 | 56.32409 | 144.27983 | 34122 ft | 507 kts | 220° |
| 2026-04-24 22:11 | 56.26665 | 144.20621 | 34121 ft | 508 kts | 219° |
| 2026-04-24 22:12 | 56.20879 | 144.13383 | 34124 ft | 508 kts | 219° |
| 2026-04-24 22:12 | 56.15066 | 144.06181 | 34124 ft | 508 kts | 219° |
| 2026-04-24 22:13 | 56.09255 | 143.98991 | 34126 ft | 508 kts | 219° |
| 2026-04-24 22:13 | 56.03448 | 143.91816 | 34123 ft | 508 kts | 219° |
| 2026-04-24 22:14 | 55.97632 | 143.84647 | 34124 ft | 508 kts | 219° |
| 2026-04-24 22:14 | 55.91817 | 143.77508 | 34111 ft | 508 kts | 219° |
| 2026-04-24 22:15 | 55.86014 | 143.70410 | 34130 ft | 506 kts | 218° |
| 2026-04-24 22:15 | 55.80227 | 143.63357 | 34130 ft | 505 kts | 219° |
| 2026-04-24 22:16 | 55.74436 | 143.56323 | 34128 ft | 506 kts | 218° |
| 2026-04-24 22:16 | 55.68634 | 143.49304 | 34127 ft | 506 kts | 218° |
| 2026-04-24 22:17 | 55.62832 | 143.42310 | 34123 ft | 505 kts | 218° |
| 2026-04-24 22:17 | 55.57053 | 143.35373 | 34127 ft | 503 kts | 218° |
| 2026-04-24 22:18 | 55.51272 | 143.28457 | 34129 ft | 503 kts | 218° |
| 2026-04-24 22:18 | 55.45488 | 143.21560 | 34129 ft | 503 kts | 218° |
| 2026-04-24 22:19 | 55.39695 | 143.14677 | 34116 ft | 502 kts | 217° |
| 2026-04-24 22:19 | 55.33942 | 143.07867 | 34131 ft | 499 kts | 217° |
| 2026-04-24 22:20 | 55.28193 | 143.01087 | 34143 ft | 499 kts | 217° |
| 2026-04-24 22:20 | 55.22440 | 142.94322 | 34132 ft | 500 kts | 217° |
| 2026-04-24 22:21 | 55.16650 | 142.87586 | 34118 ft | 501 kts | 217° |
| 2026-04-24 22:21 | 55.10861 | 142.80943 | 34134 ft | 497 kts | 216° |
| 2026-04-24 22:22 | 55.05087 | 142.74342 | 34133 ft | 496 kts | 216° |
| 2026-04-24 22:22 | 54.99320 | 142.67760 | 34135 ft | 497 kts | 216° |
| 2026-04-24 22:23 | 54.93555 | 142.61198 | 34141 ft | 497 kts | 216° |
| 2026-04-24 22:23 | 54.87780 | 142.54646 | 34132 ft | 494 kts | 216° |
| 2026-04-24 22:24 | 54.82049 | 142.48170 | 34132 ft | 492 kts | 216° |
| 2026-04-24 22:24 | 54.76322 | 142.41719 | 34126 ft | 492 kts | 216° |
| 2026-04-24 22:25 | 54.70584 | 142.35277 | 34133 ft | 493 kts | 216° |
| 2026-04-24 22:25 | 54.64837 | 142.28846 | 34120 ft | 493 kts | 215° |
| 2026-04-24 22:26 | 54.59109 | 142.22464 | 34127 ft | 490 kts | 215° |
| 2026-04-24 22:26 | 54.53389 | 142.16110 | 34127 ft | 490 kts | 215° |
| 2026-04-24 22:27 | 54.47669 | 142.09775 | 34125 ft | 490 kts | 215° |
| 2026-04-24 22:27 | 54.41942 | 142.03454 | 34104 ft | 490 kts | 214° |
| 2026-04-24 22:28 | 54.36231 | 141.97175 | 34125 ft | 487 kts | 214° |
| 2026-04-24 22:28 | 54.30547 | 141.90943 | 34119 ft | 486 kts | 214° |
| 2026-04-24 22:29 | 54.22030 | 141.81645 | 34116 ft | 486 kts | 214° |
| 2026-04-24 22:29 | 54.16317 | 141.75433 | 34108 ft | 486 kts | 214° |
| 2026-04-24 22:30 | 54.10644 | 141.69284 | 34114 ft | 483 kts | 214° |
| 2026-04-24 22:30 | 54.04977 | 141.63165 | 34119 ft | 483 kts | 214° |
| 2026-04-24 22:31 | 53.99311 | 141.57067 | 34113 ft | 483 kts | 214° |
| 2026-04-24 22:31 | 53.93640 | 141.50982 | 34113 ft | 483 kts | 214° |
| 2026-04-24 22:32 | 53.87986 | 141.44936 | 34110 ft | 479 kts | 213° |
| 2026-04-24 22:32 | 53.82370 | 141.38949 | 34108 ft | 478 kts | 213° |
| 2026-04-24 22:33 | 53.76753 | 141.32981 | 34108 ft | 478 kts | 213° |
| 2026-04-24 22:33 | 53.71122 | 141.27016 | 34102 ft | 478 kts | 213° |
| 2026-04-24 22:34 | 53.65497 | 141.21082 | 34104 ft | 478 kts | 213° |
| 2026-04-24 22:34 | 53.59853 | 141.15150 | 34102 ft | 480 kts | 213° |
| 2026-04-24 22:35 | 53.54193 | 141.09205 | 34102 ft | 481 kts | 213° |
| 2026-04-24 22:35 | 53.48527 | 141.03277 | 34102 ft | 481 kts | 213° |
| 2026-04-24 22:36 | 53.42855 | 140.97362 | 34101 ft | 480 kts | 212° |
| 2026-04-24 22:36 | 53.37215 | 140.91503 | 34103 ft | 477 kts | 212° |
| 2026-04-24 22:37 | 53.31592 | 140.85681 | 34100 ft | 476 kts | 212° |
| 2026-04-24 22:37 | 53.25961 | 140.79868 | 34100 ft | 476 kts | 212° |
| 2026-04-24 22:38 | 53.20337 | 140.74079 | 34096 ft | 476 kts | 212° |
| 2026-04-24 22:38 | 53.14778 | 140.68174 | 34100 ft | 472 kts | 216° |
| 2026-04-24 22:39 | 53.09501 | 140.61745 | 34100 ft | 471 kts | 217° |
| 2026-04-24 22:39 | 53.04263 | 140.55222 | 34387 ft | 471 kts | 217° |
| 2026-04-24 22:40 | 53.01650 | 140.51967 | 34613 ft | 470 kts | 217° |
| 2026-04-24 22:40 | 52.99039 | 140.48722 | 34832 ft | 470 kts | 217° |
| 2026-04-24 22:40 | 52.96438 | 140.45498 | 35071 ft | 468 kts | 217° |
| 2026-04-24 22:40 | 52.93835 | 140.42281 | 35413 ft | 464 kts | 217° |
| 2026-04-24 22:41 | 52.91246 | 140.39089 | 35577 ft | 465 kts | 217° |
| 2026-04-24 22:41 | 52.88658 | 140.35904 | 35712 ft | 466 kts | 217° |
| 2026-04-24 22:41 | 52.86059 | 140.32711 | 35856 ft | 466 kts | 217° |
| 2026-04-24 22:41 | 52.83456 | 140.29520 | 36033 ft | 466 kts | 217° |
| 2026-04-24 22:42 | 52.78231 | 140.23125 | 36091 ft | 470 kts | 217° |
| 2026-04-24 22:42 | 52.72997 | 140.16738 | 36094 ft | 467 kts | 216° |
| 2026-04-24 22:43 | 52.67841 | 140.10466 | 36087 ft | 464 kts | 216° |
| 2026-04-24 22:43 | 52.62654 | 140.04177 | 36089 ft | 464 kts | 216° |
| 2026-04-24 22:44 | 52.57374 | 139.98107 | 36091 ft | 464 kts | 214° |
| 2026-04-24 22:44 | 52.52031 | 139.92202 | 36089 ft | 464 kts | 213° |
| 2026-04-24 22:45 | 52.46703 | 139.86306 | 36095 ft | 462 kts | 214° |
| 2026-04-24 22:45 | 52.41400 | 139.80400 | 36100 ft | 462 kts | 214° |
| 2026-04-24 22:46 | 52.36096 | 139.74492 | 36089 ft | 462 kts | 214° |
| 2026-04-24 22:46 | 52.30784 | 139.68593 | 36101 ft | 462 kts | 214° |
| 2026-04-24 22:47 | 52.25492 | 139.62738 | 36106 ft | 460 kts | 213° |
| 2026-04-24 22:47 | 52.20205 | 139.56905 | 36109 ft | 459 kts | 213° |
| 2026-04-24 22:48 | 52.14920 | 139.51093 | 36095 ft | 459 kts | 213° |
| 2026-04-24 22:48 | 52.09635 | 139.45297 | 36095 ft | 459 kts | 213° |
| 2026-04-24 22:49 | 52.04350 | 139.39517 | 36096 ft | 458 kts | 213° |
| 2026-04-24 22:49 | 51.99079 | 139.33769 | 36097 ft | 457 kts | 213° |
| 2026-04-24 22:50 | 51.93812 | 139.28043 | 36094 ft | 457 kts | 213° |
| 2026-04-24 22:50 | 51.88542 | 139.22330 | 36090 ft | 457 kts | 213° |
| 2026-04-24 22:51 | 51.83272 | 139.16635 | 36097 ft | 457 kts | 212° |
| 2026-04-24 22:51 | 51.78001 | 139.10952 | 36091 ft | 456 kts | 212° |
| 2026-04-24 22:52 | 51.72724 | 139.05280 | 36089 ft | 456 kts | 212° |
| 2026-04-24 22:52 | 51.67450 | 138.99628 | 36085 ft | 456 kts | 212° |
| 2026-04-24 22:53 | 51.62171 | 138.93986 | 36095 ft | 456 kts | 213° |
| 2026-04-24 22:53 | 51.56894 | 138.88362 | 36085 ft | 456 kts | 213° |
| 2026-04-24 22:54 | 51.51614 | 138.82752 | 36080 ft | 456 kts | 212° |
| 2026-04-24 22:54 | 51.46331 | 138.77153 | 36081 ft | 456 kts | 212° |
| 2026-04-24 22:55 | 51.41045 | 138.71567 | 36078 ft | 456 kts | 212° |
| 2026-04-24 22:55 | 51.35762 | 138.66000 | 36075 ft | 456 kts | 213° |
| 2026-04-24 22:56 | 51.30467 | 138.60436 | 36075 ft | 456 kts | 212° |
| 2026-04-24 22:56 | 51.25171 | 138.54887 | 36073 ft | 456 kts | 212° |
| 2026-04-24 22:57 | 51.19873 | 138.49351 | 36075 ft | 456 kts | 212° |
| 2026-04-24 22:57 | 51.14579 | 138.43835 | 36072 ft | 455 kts | 212° |
| 2026-04-24 22:58 | 51.09296 | 138.38345 | 36065 ft | 454 kts | 212° |
| 2026-04-24 22:58 | 51.04007 | 138.32865 | 36065 ft | 454 kts | 212° |
| 2026-04-24 22:59 | 50.98725 | 138.27406 | 36061 ft | 454 kts | 212° |
| 2026-04-24 23:00 | 50.90866 | 138.19071 | 36061 ft | 454 kts | 216° |
| 2026-04-24 23:00 | 50.85865 | 138.13008 | 36061 ft | 453 kts | 217° |
| 2026-04-24 23:01 | 50.80909 | 138.06890 | 36058 ft | 453 kts | 217° |
| 2026-04-24 23:01 | 50.75942 | 138.00774 | 36056 ft | 453 kts | 217° |
| 2026-04-24 23:02 | 50.70977 | 137.94681 | 36053 ft | 451 kts | 217° |
| 2026-04-24 23:02 | 50.66033 | 137.88637 | 36054 ft | 450 kts | 217° |
| 2026-04-24 23:03 | 50.61097 | 137.82624 | 36054 ft | 450 kts | 217° |
| 2026-04-24 23:03 | 50.56138 | 137.76600 | 36044 ft | 450 kts | 217° |
| 2026-04-24 23:04 | 50.51188 | 137.70604 | 36045 ft | 449 kts | 217° |
| 2026-04-24 23:04 | 50.46257 | 137.64646 | 36045 ft | 448 kts | 217° |
| 2026-04-24 23:05 | 50.41327 | 137.58705 | 36043 ft | 448 kts | 217° |
| 2026-04-24 23:05 | 50.36384 | 137.52816 | 36043 ft | 448 kts | 216° |
| 2026-04-24 23:06 | 50.31268 | 137.47278 | 36040 ft | 448 kts | 214° |
| 2026-04-24 23:06 | 50.26104 | 137.41850 | 36040 ft | 448 kts | 214° |
| 2026-04-24 23:07 | 50.20961 | 137.36393 | 36034 ft | 448 kts | 214° |
| 2026-04-24 23:07 | 50.15832 | 137.30911 | 36034 ft | 448 kts | 214° |
| 2026-04-24 23:08 | 50.10659 | 137.25545 | 36032 ft | 448 kts | 210° |
| 2026-04-24 23:08 | 50.04908 | 137.21850 | 36031 ft | 449 kts | 198° |
| 2026-04-24 23:09 | 49.98905 | 137.19157 | 36032 ft | 450 kts | 196° |
| 2026-04-24 23:09 | 49.92868 | 137.16631 | 36031 ft | 450 kts | 196° |
| 2026-04-24 23:10 | 49.86834 | 137.14097 | 36030 ft | 450 kts | 196° |
| 2026-04-24 23:10 | 49.80821 | 137.11546 | 36028 ft | 449 kts | 196° |
| 2026-04-24 23:11 | 49.74820 | 137.08991 | 36006 ft | 448 kts | 197° |
| 2026-04-24 23:11 | 49.68802 | 137.06433 | 36024 ft | 450 kts | 197° |
| 2026-04-24 23:12 | 49.62771 | 137.03879 | 36025 ft | 451 kts | 197° |
| 2026-04-24 23:12 | 49.56744 | 137.01337 | 36021 ft | 448 kts | 197° |
| 2026-04-24 23:13 | 49.50782 | 136.98836 | 36022 ft | 443 kts | 197° |
| 2026-04-24 23:13 | 49.44848 | 136.96333 | 36020 ft | 443 kts | 197° |
| 2026-04-24 23:14 | 49.38912 | 136.93830 | 36017 ft | 443 kts | 197° |
| 2026-04-24 23:14 | 49.32970 | 136.91351 | 36019 ft | 445 kts | 197° |
| 2026-04-24 23:15 | 49.27033 | 136.88876 | 36019 ft | 441 kts | 197° |
| 2026-04-24 23:15 | 49.21133 | 136.86418 | 36021 ft | 440 kts | 197° |
| 2026-04-24 23:16 | 49.15231 | 136.83967 | 36024 ft | 440 kts | 197° |
| 2026-04-24 23:16 | 49.09332 | 136.81526 | 36006 ft | 440 kts | 197° |
| 2026-04-24 23:17 | 49.03433 | 136.79093 | 36006 ft | 440 kts | 197° |
| 2026-04-24 23:17 | 48.97540 | 136.76594 | 36013 ft | 441 kts | 198° |
| 2026-04-24 23:18 | 48.91663 | 136.73992 | 36009 ft | 441 kts | 199° |
| 2026-04-24 23:18 | 48.85775 | 136.71399 | 36013 ft | 441 kts | 198° |
| 2026-04-24 23:19 | 48.79890 | 136.68836 | 36000 ft | 441 kts | 198° |
| 2026-04-24 23:19 | 48.74019 | 136.66299 | 36002 ft | 439 kts | 198° |
| 2026-04-24 23:20 | 48.68160 | 136.63774 | 35997 ft | 439 kts | 198° |
| 2026-04-24 23:20 | 48.62303 | 136.61243 | 35979 ft | 439 kts | 198° |
| 2026-04-24 23:21 | 48.56431 | 136.58718 | 36004 ft | 440 kts | 199° |
| 2026-04-24 23:21 | 48.50566 | 136.56197 | 35998 ft | 439 kts | 198° |
| 2026-04-24 23:22 | 48.44697 | 136.53681 | 36007 ft | 439 kts | 198° |
| 2026-04-24 23:22 | 48.38835 | 136.51176 | 36004 ft | 439 kts | 198° |
| 2026-04-24 23:23 | 48.32975 | 136.48679 | 36012 ft | 439 kts | 198° |
| 2026-04-24 23:23 | 48.27106 | 136.46190 | 36007 ft | 439 kts | 198° |
| 2026-04-24 23:24 | 48.21245 | 136.43715 | 36006 ft | 439 kts | 199° |
| 2026-04-24 23:24 | 48.15377 | 136.41240 | 36016 ft | 439 kts | 199° |
| 2026-04-24 23:25 | 48.09502 | 136.38774 | 36013 ft | 439 kts | 199° |
| 2026-04-24 23:25 | 48.03634 | 136.36299 | 36024 ft | 439 kts | 199° |
| 2026-04-24 23:26 | 47.97775 | 136.33830 | 36022 ft | 438 kts | 199° |
| 2026-04-24 23:26 | 47.91917 | 136.31374 | 36020 ft | 438 kts | 199° |
| 2026-04-24 23:27 | 47.86057 | 136.28924 | 36025 ft | 439 kts | 199° |
| 2026-04-24 23:27 | 47.80184 | 136.26476 | 36038 ft | 439 kts | 199° |
| 2026-04-24 23:28 | 47.74312 | 136.24035 | 36032 ft | 439 kts | 199° |
| 2026-04-24 23:28 | 47.68445 | 136.21598 | 36034 ft | 439 kts | 199° |
| 2026-04-24 23:29 | 47.62581 | 136.19168 | 36036 ft | 439 kts | 199° |
| 2026-04-24 23:29 | 47.56714 | 136.16745 | 36037 ft | 438 kts | 199° |
| 2026-04-24 23:30 | 47.50856 | 136.14330 | 36037 ft | 437 kts | 200° |
| 2026-04-24 23:30 | 47.45033 | 136.11936 | 36042 ft | 435 kts | 200° |
| 2026-04-24 23:31 | 47.39204 | 136.09544 | 36043 ft | 435 kts | 200° |
| 2026-04-24 23:31 | 47.33384 | 136.07160 | 36044 ft | 435 kts | 200° |
| 2026-04-24 23:32 | 47.27563 | 136.04781 | 36044 ft | 434 kts | 200° |
| 2026-04-24 23:32 | 47.21720 | 136.02604 | 36049 ft | 434 kts | 198° |
| 2026-04-24 23:33 | 47.15836 | 136.00665 | 36053 ft | 435 kts | 198° |
| 2026-04-24 23:33 | 47.09939 | 135.98716 | 36053 ft | 436 kts | 198° |
| 2026-04-24 23:34 | 47.04032 | 135.96725 | 36060 ft | 435 kts | 198° |
| 2026-04-24 23:34 | 46.98160 | 135.94732 | 36064 ft | 433 kts | 198° |
| 2026-04-24 23:35 | 46.92297 | 135.92745 | 36061 ft | 433 kts | 198° |
| 2026-04-24 23:35 | 46.86437 | 135.90762 | 36069 ft | 433 kts | 198° |
| 2026-04-24 23:36 | 46.80572 | 135.88784 | 36065 ft | 434 kts | 199° |
| 2026-04-24 23:36 | 46.74702 | 135.86807 | 36077 ft | 433 kts | 199° |
| 2026-04-24 23:37 | 46.68840 | 135.84841 | 36078 ft | 433 kts | 199° |
| 2026-04-24 23:37 | 46.60055 | 135.81901 | 36089 ft | 433 kts | 199° |
| 2026-04-24 23:38 | 46.54198 | 135.79945 | 36089 ft | 433 kts | 199° |
| 2026-04-24 23:38 | 46.48332 | 135.77989 | 36091 ft | 433 kts | 199° |
| 2026-04-24 23:39 | 46.42458 | 135.76017 | 36099 ft | 435 kts | 199° |
| 2026-04-24 23:39 | 46.36569 | 135.74066 | 36108 ft | 435 kts | 199° |
| 2026-04-24 23:40 | 46.30624 | 135.72357 | 36108 ft | 438 kts | 195° |
| 2026-04-24 23:40 | 46.24614 | 135.71038 | 36125 ft | 437 kts | 195° |
| 2026-04-24 23:41 | 46.18627 | 135.69722 | 36114 ft | 436 kts | 195° |
| 2026-04-24 23:41 | 46.12633 | 135.68343 | 36122 ft | 438 kts | 195° |
| 2026-04-24 23:42 | 46.06633 | 135.66928 | 36132 ft | 438 kts | 196° |
| 2026-04-24 23:42 | 46.00641 | 135.65524 | 36133 ft | 437 kts | 196° |
| 2026-04-24 23:43 | 45.94658 | 135.64119 | 36144 ft | 436 kts | 196° |
| 2026-04-24 23:43 | 45.88681 | 135.62723 | 36138 ft | 436 kts | 196° |
| 2026-04-24 23:44 | 45.82702 | 135.61326 | 36147 ft | 438 kts | 196° |
| 2026-04-24 23:44 | 45.76690 | 135.59921 | 36141 ft | 439 kts | 196° |
| 2026-04-24 23:45 | 45.70678 | 135.58524 | 36157 ft | 438 kts | 196° |
| 2026-04-24 23:45 | 45.64670 | 135.57133 | 36151 ft | 438 kts | 196° |
| 2026-04-24 23:46 | 45.58664 | 135.55740 | 36157 ft | 438 kts | 196° |
| 2026-04-24 23:46 | 45.52660 | 135.54354 | 36154 ft | 439 kts | 196° |
| 2026-04-24 23:47 | 45.46638 | 135.52967 | 36165 ft | 439 kts | 196° |
| 2026-04-24 23:47 | 45.40621 | 135.51586 | 36173 ft | 439 kts | 196° |
| 2026-04-24 23:48 | 45.34602 | 135.50205 | 36169 ft | 439 kts | 196° |
| 2026-04-24 23:48 | 45.28585 | 135.48828 | 36168 ft | 439 kts | 197° |
| 2026-04-24 23:49 | 45.22573 | 135.47453 | 36176 ft | 440 kts | 197° |
| 2026-04-24 23:49 | 45.16529 | 135.46074 | 36177 ft | 441 kts | 197° |
| 2026-04-24 23:50 | 45.10483 | 135.44701 | 36185 ft | 441 kts | 196° |
| 2026-04-24 23:50 | 45.04433 | 135.43332 | 36180 ft | 441 kts | 197° |
| 2026-04-24 23:51 | 44.98398 | 135.41972 | 36197 ft | 440 kts | 197° |
| 2026-04-24 23:51 | 44.92361 | 135.40605 | 36192 ft | 441 kts | 197° |
| 2026-04-24 23:52 | 44.86304 | 135.39235 | 36202 ft | 442 kts | 197° |
| 2026-04-24 23:52 | 44.80261 | 135.37825 | 36195 ft | 440 kts | 199° |
| 2026-04-24 23:53 | 44.74336 | 135.35869 | 36213 ft | 437 kts | 201° |
| 2026-04-24 23:53 | 44.68466 | 135.33764 | 36211 ft | 437 kts | 201° |
| 2026-04-24 23:54 | 44.62575 | 135.31720 | 36212 ft | 437 kts | 201° |
| 2026-04-24 23:54 | 44.56647 | 135.29736 | 36216 ft | 440 kts | 200° |
| 2026-04-24 23:55 | 44.50687 | 135.27775 | 36222 ft | 441 kts | 200° |
| 2026-04-24 23:55 | 44.44735 | 135.25828 | 36219 ft | 440 kts | 200° |
| 2026-04-24 23:56 | 44.38783 | 135.23874 | 36234 ft | 440 kts | 200° |
| 2026-04-24 23:56 | 44.32825 | 135.21924 | 36224 ft | 441 kts | 200° |
| 2026-04-24 23:57 | 44.26868 | 135.19969 | 36222 ft | 441 kts | 201° |
| 2026-04-24 23:57 | 44.20908 | 135.18012 | 36231 ft | 441 kts | 200° |
| 2026-04-24 23:58 | 44.14945 | 135.16069 | 36229 ft | 441 kts | 200° |
| 2026-04-24 23:58 | 44.08979 | 135.14134 | 36229 ft | 441 kts | 200° |
| 2026-04-24 23:59 | 44.03016 | 135.12201 | 36222 ft | 441 kts | 200° |
| 2026-04-24 23:59 | 43.97052 | 135.10269 | 36227 ft | 442 kts | 200° |
| 2026-04-25 00:00 | 43.91059 | 135.08330 | 36213 ft | 443 kts | 200° |
| 2026-04-25 00:00 | 43.85067 | 135.06398 | 36228 ft | 443 kts | 200° |
| 2026-04-25 00:01 | 43.79071 | 135.04463 | 36219 ft | 443 kts | 200° |
| 2026-04-25 00:01 | 43.73072 | 135.02533 | 36227 ft | 444 kts | 200° |
| 2026-04-25 00:02 | 43.67083 | 135.00604 | 36221 ft | 445 kts | 200° |
| 2026-04-25 00:02 | 43.61049 | 134.98673 | 36232 ft | 446 kts | 200° |
| 2026-04-25 00:03 | 43.55012 | 134.96756 | 36233 ft | 446 kts | 200° |
| 2026-04-25 00:03 | 43.48976 | 134.94831 | 36235 ft | 446 kts | 200° |
| 2026-04-25 00:04 | 43.42943 | 134.92917 | 36235 ft | 446 kts | 200° |
| 2026-04-25 00:04 | 43.36902 | 134.91002 | 36240 ft | 446 kts | 200° |
| 2026-04-25 00:05 | 43.30868 | 134.89093 | 36240 ft | 446 kts | 200° |
| 2026-04-25 00:05 | 43.24833 | 134.87187 | 36221 ft | 446 kts | 200° |
| 2026-04-25 00:06 | 43.18801 | 134.85284 | 36248 ft | 446 kts | 200° |
| 2026-04-25 00:06 | 43.12756 | 134.83382 | 36249 ft | 446 kts | 200° |
| 2026-04-25 00:07 | 43.06711 | 134.81484 | 36245 ft | 447 kts | 200° |
| 2026-04-25 00:07 | 43.00666 | 134.79589 | 36242 ft | 447 kts | 200° |
| 2026-04-25 00:08 | 42.94613 | 134.77696 | 36244 ft | 447 kts | 200° |
| 2026-04-25 00:08 | 42.88562 | 134.75809 | 36249 ft | 447 kts | 200° |
| 2026-04-25 00:09 | 42.82510 | 134.73931 | 36246 ft | 447 kts | 200° |
| 2026-04-25 00:09 | 42.76462 | 134.72044 | 36250 ft | 448 kts | 200° |
| 2026-04-25 00:10 | 42.70394 | 134.70155 | 36246 ft | 448 kts | 200° |
| 2026-04-25 00:10 | 42.64325 | 134.68274 | 36249 ft | 449 kts | 200° |
| 2026-04-25 00:11 | 42.59266 | 134.66710 | 36241 ft | 448 kts | 200° |
| 2026-04-25 00:11 | 42.52178 | 134.64523 | 36252 ft | 448 kts | 200° |
| 2026-04-25 00:12 | 42.46107 | 134.62653 | 36248 ft | 448 kts | 200° |
| 2026-04-25 00:12 | 42.40030 | 134.60785 | 36249 ft | 448 kts | 200° |
| 2026-04-25 00:13 | 42.33962 | 134.58924 | 36249 ft | 448 kts | 200° |
| 2026-04-25 00:13 | 42.27891 | 134.57065 | 36253 ft | 448 kts | 200° |
| 2026-04-25 00:14 | 42.21819 | 134.55210 | 36249 ft | 448 kts | 200° |
| 2026-04-25 00:14 | 42.15750 | 134.53360 | 36245 ft | 447 kts | 200° |
| 2026-04-25 00:15 | 42.09696 | 134.51518 | 36252 ft | 447 kts | 200° |
| 2026-04-25 00:15 | 42.03646 | 134.49680 | 36252 ft | 447 kts | 200° |
| 2026-04-25 00:16 | 41.97592 | 134.47844 | 36252 ft | 447 kts | 200° |
| 2026-04-25 00:16 | 41.91536 | 134.46012 | 36236 ft | 447 kts | 200° |
| 2026-04-25 00:17 | 41.85488 | 134.44186 | 36252 ft | 446 kts | 200° |
| 2026-04-25 00:17 | 41.79449 | 134.42366 | 36254 ft | 446 kts | 200° |
| 2026-04-25 00:18 | 41.73409 | 134.40548 | 36253 ft | 446 kts | 200° |
| 2026-04-25 00:18 | 41.67358 | 134.38730 | 36245 ft | 446 kts | 200° |
| 2026-04-25 00:19 | 41.61310 | 134.36918 | 36253 ft | 446 kts | 200° |
| 2026-04-25 00:19 | 41.55262 | 134.35110 | 36238 ft | 446 kts | 200° |
| 2026-04-25 00:20 | 41.49213 | 134.33304 | 36251 ft | 447 kts | 200° |
| 2026-04-25 00:20 | 41.43159 | 134.31500 | 36250 ft | 447 kts | 200° |
| 2026-04-25 00:21 | 41.37105 | 134.29700 | 36251 ft | 447 kts | 200° |
| 2026-04-25 00:21 | 41.31051 | 134.27903 | 36251 ft | 447 kts | 200° |
| 2026-04-25 00:22 | 41.24991 | 134.26108 | 36251 ft | 447 kts | 200° |
| 2026-04-25 00:22 | 41.18930 | 134.24316 | 36251 ft | 447 kts | 200° |
| 2026-04-25 00:23 | 41.12874 | 134.22529 | 36242 ft | 447 kts | 199° |
| 2026-04-25 00:23 | 41.06819 | 134.20746 | 36246 ft | 447 kts | 200° |
| 2026-04-25 00:24 | 41.00781 | 134.18909 | 36250 ft | 443 kts | 203° |
| 2026-04-25 00:24 | 40.95206 | 134.15806 | 36228 ft | 432 kts | 214° |
| 2026-04-25 00:25 | 40.89944 | 134.12034 | 36243 ft | 430 kts | 216° |
| 2026-04-25 00:25 | 40.84737 | 134.08168 | 36242 ft | 430 kts | 216° |
| 2026-04-25 00:26 | 40.79527 | 134.04317 | 36258 ft | 430 kts | 215° |
| 2026-04-25 00:26 | 40.74294 | 134.00484 | 36254 ft | 430 kts | 215° |
| 2026-04-25 00:27 | 40.69071 | 133.96676 | 36248 ft | 430 kts | 215° |
| 2026-04-25 00:27 | 40.63848 | 133.92876 | 36249 ft | 430 kts | 215° |
| 2026-04-25 00:28 | 40.58625 | 133.89081 | 36251 ft | 430 kts | 215° |
| 2026-04-25 00:28 | 40.53401 | 133.85292 | 36247 ft | 430 kts | 215° |
| 2026-04-25 00:29 | 40.48169 | 133.81503 | 36249 ft | 430 kts | 215° |
| 2026-04-25 00:29 | 40.42937 | 133.77722 | 36245 ft | 430 kts | 215° |
| 2026-04-25 00:30 | 40.37706 | 133.73947 | 36252 ft | 430 kts | 215° |
| 2026-04-25 00:30 | 40.32477 | 133.70182 | 36251 ft | 429 kts | 215° |
| 2026-04-25 00:31 | 40.27259 | 133.66431 | 36244 ft | 429 kts | 215° |
| 2026-04-25 00:31 | 40.22030 | 133.62678 | 36249 ft | 429 kts | 215° |
| 2026-04-25 00:32 | 40.16801 | 133.58932 | 36246 ft | 429 kts | 215° |
| 2026-04-25 00:32 | 40.11573 | 133.55193 | 36247 ft | 429 kts | 215° |
| 2026-04-25 00:33 | 40.06342 | 133.51460 | 36243 ft | 429 kts | 215° |
| 2026-04-25 00:33 | 40.01110 | 133.47732 | 36244 ft | 429 kts | 215° |
| 2026-04-25 00:34 | 39.95877 | 133.44009 | 36234 ft | 429 kts | 214° |
| 2026-04-25 00:34 | 39.90641 | 133.40292 | 36250 ft | 429 kts | 214° |
| 2026-04-25 00:35 | 39.85408 | 133.36582 | 36246 ft | 429 kts | 214° |
| 2026-04-25 00:35 | 39.80178 | 133.32882 | 36248 ft | 429 kts | 214° |
| 2026-04-25 00:36 | 39.74940 | 133.29182 | 36248 ft | 429 kts | 214° |
| 2026-04-25 00:36 | 39.69702 | 133.25489 | 36243 ft | 429 kts | 214° |
| 2026-04-25 00:37 | 39.64460 | 133.21799 | 36250 ft | 429 kts | 214° |
| 2026-04-25 00:37 | 39.59217 | 133.18114 | 36252 ft | 430 kts | 214° |
| 2026-04-25 00:38 | 39.53959 | 133.14426 | 36247 ft | 431 kts | 214° |
| 2026-04-25 00:38 | 39.48694 | 133.10739 | 36247 ft | 431 kts | 214° |
| 2026-04-25 00:39 | 39.43434 | 133.07063 | 36246 ft | 431 kts | 214° |
| 2026-04-25 00:39 | 39.38161 | 133.03383 | 36246 ft | 432 kts | 214° |
| 2026-04-25 00:40 | 39.32881 | 132.99706 | 36246 ft | 432 kts | 214° |
| 2026-04-25 00:40 | 39.27688 | 132.95881 | 36243 ft | 430 kts | 216° |
| 2026-04-25 00:41 | 39.22567 | 132.91929 | 36246 ft | 430 kts | 216° |
| 2026-04-25 00:41 | 39.17426 | 132.87992 | 36246 ft | 431 kts | 216° |
| 2026-04-25 00:42 | 39.12268 | 132.84088 | 36240 ft | 431 kts | 216° |
| 2026-04-25 00:42 | 39.07104 | 132.80202 | 36241 ft | 431 kts | 216° |
| 2026-04-25 00:43 | 39.01936 | 132.76322 | 36243 ft | 431 kts | 216° |
| 2026-04-25 00:43 | 38.96776 | 132.72451 | 36240 ft | 431 kts | 215° |
| 2026-04-25 00:44 | 38.91608 | 132.68581 | 36241 ft | 430 kts | 215° |
| 2026-04-25 00:44 | 38.86449 | 132.64724 | 36240 ft | 430 kts | 215° |
| 2026-04-25 00:45 | 38.81286 | 132.60871 | 36238 ft | 430 kts | 215° |
| 2026-04-25 00:45 | 38.76128 | 132.57028 | 36239 ft | 429 kts | 215° |
| 2026-04-25 00:46 | 38.70972 | 132.53192 | 36241 ft | 429 kts | 215° |
| 2026-04-25 00:47 | 38.63776 | 132.46636 | 36251 ft | 419 kts | 230° |
| 2026-04-25 00:47 | 38.60413 | 132.40664 | 36231 ft | 414 kts | 242° |
| 2026-04-25 00:48 | 38.57649 | 132.34215 | 36227 ft | 414 kts | 244° |
| 2026-04-25 00:48 | 38.54973 | 132.27727 | 36243 ft | 414 kts | 244° |
| 2026-04-25 00:49 | 38.52269 | 132.21237 | 36236 ft | 414 kts | 244° |
| 2026-04-25 00:49 | 38.49544 | 132.14776 | 36248 ft | 414 kts | 243° |
| 2026-04-25 00:50 | 38.46808 | 132.08323 | 36236 ft | 415 kts | 243° |
| 2026-04-25 00:50 | 38.44061 | 132.01862 | 36240 ft | 415 kts | 243° |
| 2026-04-25 00:51 | 38.41312 | 131.95411 | 36239 ft | 415 kts | 243° |
| 2026-04-25 00:51 | 38.38561 | 131.88967 | 36238 ft | 415 kts | 243° |
| 2026-04-25 00:52 | 38.35805 | 131.82523 | 36235 ft | 415 kts | 243° |
| 2026-04-25 00:52 | 38.33048 | 131.76091 | 36234 ft | 414 kts | 243° |
| 2026-04-25 00:53 | 38.30290 | 131.69667 | 36229 ft | 414 kts | 243° |
| 2026-04-25 00:53 | 38.27527 | 131.63245 | 36222 ft | 414 kts | 243° |
| 2026-04-25 00:54 | 38.24760 | 131.56829 | 36225 ft | 414 kts | 243° |
| 2026-04-25 00:54 | 38.21990 | 131.50416 | 36229 ft | 414 kts | 243° |
| 2026-04-25 00:55 | 38.19217 | 131.44011 | 36225 ft | 414 kts | 243° |
| 2026-04-25 00:55 | 38.16438 | 131.37605 | 36226 ft | 414 kts | 243° |
| 2026-04-25 00:56 | 38.13661 | 131.31218 | 36222 ft | 414 kts | 243° |
| 2026-04-25 00:56 | 38.10873 | 131.24814 | 36222 ft | 415 kts | 243° |
| 2026-04-25 00:57 | 38.08084 | 131.18425 | 36216 ft | 415 kts | 243° |
| 2026-04-25 00:57 | 38.05291 | 131.12038 | 36221 ft | 415 kts | 242° |
| 2026-04-25 00:58 | 38.02497 | 131.05660 | 36226 ft | 415 kts | 242° |
| 2026-04-25 00:58 | 37.99690 | 130.99267 | 36220 ft | 416 kts | 242° |
| 2026-04-25 00:59 | 37.96880 | 130.92878 | 36217 ft | 416 kts | 242° |
| 2026-04-25 00:59 | 37.94068 | 130.86500 | 36217 ft | 416 kts | 242° |
| 2026-04-25 01:00 | 37.91244 | 130.80107 | 36218 ft | 416 kts | 242° |
| 2026-04-25 01:00 | 37.88418 | 130.73716 | 36218 ft | 416 kts | 242° |
| 2026-04-25 01:01 | 37.85598 | 130.67348 | 36218 ft | 416 kts | 242° |
| 2026-04-25 01:01 | 37.82770 | 130.60976 | 36217 ft | 416 kts | 242° |
| 2026-04-25 01:02 | 37.79940 | 130.54613 | 36210 ft | 416 kts | 242° |
| 2026-04-25 01:02 | 37.77100 | 130.48241 | 36211 ft | 416 kts | 242° |
| 2026-04-25 01:03 | 37.74261 | 130.41883 | 36211 ft | 416 kts | 242° |
| 2026-04-25 01:03 | 37.71416 | 130.35524 | 36211 ft | 416 kts | 242° |
| 2026-04-25 01:04 | 37.68879 | 130.28994 | 36207 ft | 415 kts | 251° |
| 2026-04-25 01:04 | 37.67757 | 130.21883 | 36209 ft | 417 kts | 266° |
| 2026-04-25 01:05 | 37.67769 | 130.14582 | 36209 ft | 418 kts | 269° |
| 2026-04-25 01:05 | 37.67961 | 130.07253 | 36205 ft | 419 kts | 269° |
| 2026-04-25 01:06 | 37.68152 | 129.99916 | 36206 ft | 419 kts | 269° |
| 2026-04-25 01:06 | 37.68314 | 129.92581 | 36204 ft | 418 kts | 269° |
| 2026-04-25 01:07 | 37.68458 | 129.85261 | 36203 ft | 418 kts | 269° |
| 2026-04-25 01:07 | 37.68601 | 129.77930 | 36195 ft | 418 kts | 269° |
| 2026-04-25 01:08 | 37.68734 | 129.70605 | 36194 ft | 418 kts | 269° |
| 2026-04-25 01:08 | 37.68871 | 129.63271 | 36198 ft | 419 kts | 269° |
| 2026-04-25 01:09 | 37.68994 | 129.55925 | 36196 ft | 420 kts | 269° |
| 2026-04-25 01:09 | 37.69111 | 129.48568 | 36190 ft | 420 kts | 269° |
| 2026-04-25 01:10 | 37.69226 | 129.41216 | 36191 ft | 420 kts | 269° |
| 2026-04-25 01:10 | 37.69338 | 129.33859 | 36191 ft | 420 kts | 269° |
| 2026-04-25 01:11 | 37.69446 | 129.26486 | 36181 ft | 422 kts | 269° |
| 2026-04-25 01:11 | 37.69550 | 129.19088 | 36170 ft | 422 kts | 269° |
| 2026-04-25 01:12 | 37.69650 | 129.11689 | 36170 ft | 422 kts | 269° |
| 2026-04-25 01:12 | 37.69744 | 129.04280 | 36167 ft | 424 kts | 269° |
| 2026-04-25 01:13 | 37.69835 | 128.96850 | 36158 ft | 424 kts | 269° |
| 2026-04-25 01:13 | 37.69920 | 128.89432 | 36149 ft | 424 kts | 268° |
| 2026-04-25 01:14 | 37.70002 | 128.82012 | 36160 ft | 424 kts | 268° |
| 2026-04-25 01:14 | 37.69846 | 128.74601 | 36155 ft | 422 kts | 261° |
| 2026-04-25 01:15 | 37.68899 | 128.67306 | 36153 ft | 422 kts | 258° |
| 2026-04-25 01:15 | 37.67814 | 128.60043 | 36162 ft | 423 kts | 258° |
| 2026-04-25 01:16 | 37.66701 | 128.52764 | 35951 ft | 422 kts | 258° |
| 2026-04-25 01:16 | 37.66151 | 128.49160 | 35577 ft | 418 kts | 258° |
| 2026-04-25 01:16 | 37.65602 | 128.45558 | 34948 ft | 421 kts | 258° |
| 2026-04-25 01:16 | 37.65045 | 128.41909 | 34232 ft | 427 kts | 258° |
| 2026-04-25 01:17 | 37.64482 | 128.38221 | 33429 ft | 432 kts | 258° |
| 2026-04-25 01:17 | 37.64103 | 128.35739 | 32915 ft | 434 kts | 258° |
| 2026-04-25 01:17 | 37.63337 | 128.30739 | 31897 ft | 438 kts | 258° |
| 2026-04-25 01:17 | 37.62756 | 128.26955 | 31101 ft | 442 kts | 258° |
| 2026-04-25 01:18 | 37.62170 | 128.23138 | 30278 ft | 446 kts | 259° |
| 2026-04-25 01:18 | 37.61577 | 128.19290 | 29340 ft | 450 kts | 259° |
| 2026-04-25 01:18 | 37.60982 | 128.15437 | 28769 ft | 446 kts | 259° |
| 2026-04-25 01:18 | 37.60391 | 128.11623 | 28195 ft | 442 kts | 259° |
| 2026-04-25 01:19 | 37.59804 | 128.07840 | 27588 ft | 439 kts | 259° |
| 2026-04-25 01:19 | 37.59222 | 128.04098 | 27008 ft | 436 kts | 259° |
| 2026-04-25 01:19 | 37.58643 | 128.00380 | 26416 ft | 433 kts | 259° |
| 2026-04-25 01:19 | 37.58065 | 127.96676 | 25830 ft | 430 kts | 259° |
| 2026-04-25 01:20 | 37.57487 | 127.92986 | 25239 ft | 429 kts | 259° |
| 2026-04-25 01:20 | 37.56911 | 127.89317 | 24663 ft | 427 kts | 259° |
| 2026-04-25 01:20 | 37.56337 | 127.85665 | 24054 ft | 425 kts | 259° |
| 2026-04-25 01:20 | 37.55764 | 127.82026 | 23407 ft | 424 kts | 259° |
| 2026-04-25 01:21 | 37.55192 | 127.78396 | 22782 ft | 421 kts | 259° |
| 2026-04-25 01:21 | 37.54624 | 127.74806 | 22184 ft | 418 kts | 259° |
| 2026-04-25 01:21 | 37.54058 | 127.71233 | 21583 ft | 415 kts | 259° |
| 2026-04-25 01:21 | 37.53493 | 127.67681 | 20982 ft | 413 kts | 259° |
| 2026-04-25 01:22 | 37.52935 | 127.64160 | 20430 ft | 410 kts | 259° |
| 2026-04-25 01:22 | 37.52382 | 127.60682 | 20288 ft | 397 kts | 259° |
| 2026-04-25 01:22 | 37.51848 | 127.57341 | 20170 ft | 384 kts | 259° |
| 2026-04-25 01:22 | 37.51329 | 127.54097 | 20065 ft | 372 kts | 259° |
| 2026-04-25 01:23 | 37.50827 | 127.50959 | 19917 ft | 362 kts | 258° |
| 2026-04-25 01:23 | 37.50336 | 127.47900 | 19762 ft | 353 kts | 258° |
| 2026-04-25 01:23 | 37.49855 | 127.44910 | 19617 ft | 344 kts | 258° |
| 2026-04-25 01:23 | 37.49386 | 127.41996 | 19455 ft | 336 kts | 258° |
| 2026-04-25 01:24 | 37.48929 | 127.39158 | 19311 ft | 329 kts | 258° |
| 2026-04-25 01:24 | 37.48478 | 127.36362 | 19133 ft | 323 kts | 258° |
| 2026-04-25 01:24 | 37.48032 | 127.33608 | 18822 ft | 322 kts | 258° |
| 2026-04-25 01:24 | 37.47588 | 127.30854 | 18507 ft | 321 kts | 258° |
| 2026-04-25 01:25 | 37.47144 | 127.28103 | 18140 ft | 320 kts | 258° |
| 2026-04-25 01:25 | 37.46699 | 127.25373 | 17824 ft | 319 kts | 258° |
| 2026-04-25 01:25 | 37.46254 | 127.22646 | 17481 ft | 318 kts | 258° |
| 2026-04-25 01:25 | 37.45811 | 127.19932 | 17149 ft | 317 kts | 258° |
| 2026-04-25 01:26 | 37.45368 | 127.17222 | 16833 ft | 316 kts | 258° |
| 2026-04-25 01:26 | 37.44929 | 127.14537 | 16524 ft | 315 kts | 258° |
| 2026-04-25 01:26 | 37.44489 | 127.11854 | 16213 ft | 313 kts | 258° |
| 2026-04-25 01:26 | 37.44051 | 127.09181 | 15907 ft | 312 kts | 258° |
| 2026-04-25 01:27 | 37.43612 | 127.06511 | 15585 ft | 312 kts | 258° |
| 2026-04-25 01:27 | 37.43175 | 127.03853 | 15306 ft | 311 kts | 258° |
| 2026-04-25 01:27 | 37.42738 | 127.01199 | 15021 ft | 310 kts | 257° |
| 2026-04-25 01:28 | 37.41890 | 126.95929 | 14432 ft | 306 kts | 261° |
| 2026-04-25 01:28 | 37.41909 | 126.93288 | 13821 ft | 303 kts | 283° |
| 2026-04-25 01:28 | 37.42781 | 126.90925 | 13272 ft | 296 kts | 307° |
| 2026-04-25 01:28 | 37.44071 | 126.89024 | 12924 ft | 281 kts | 311° |
| 2026-04-25 01:29 | 37.45379 | 126.87239 | 12443 ft | 274 kts | 312° |
| 2026-04-25 01:29 | 37.46666 | 126.85483 | 11794 ft | 274 kts | 311° |
| 2026-04-25 01:29 | 37.47948 | 126.83724 | 11194 ft | 273 kts | 311° |
| 2026-04-25 01:29 | 37.49208 | 126.81982 | 10635 ft | 270 kts | 311° |
| 2026-04-25 01:30 | 37.50464 | 126.80248 | 10117 ft | 266 kts | 311° |
| 2026-04-25 01:30 | 37.51695 | 126.78547 | 9675 ft | 263 kts | 311° |
| 2026-04-25 01:30 | 37.52931 | 126.76841 | 9391 ft | 263 kts | 311° |
| 2026-04-25 01:30 | 37.54148 | 126.75150 | 9085 ft | 262 kts | 311° |
| 2026-04-25 01:31 | 37.55381 | 126.73450 | 8977 ft | 264 kts | 311° |
| 2026-04-25 01:31 | 37.56602 | 126.71756 | 8782 ft | 260 kts | 310° |
| 2026-04-25 01:31 | 37.57801 | 126.70068 | 8529 ft | 259 kts | 311° |
| 2026-04-25 01:31 | 37.59018 | 126.68400 | 8303 ft | 259 kts | 311° |
| 2026-04-25 01:32 | 37.60215 | 126.66717 | 8090 ft | 257 kts | 309° |
| 2026-04-25 01:32 | 37.61389 | 126.65044 | 7879 ft | 255 kts | 310° |
| 2026-04-25 01:32 | 37.62556 | 126.63370 | 7652 ft | 254 kts | 306° |
| 2026-04-25 01:32 | 37.63418 | 126.61443 | 7396 ft | 252 kts | 292° |
| 2026-04-25 01:33 | 37.64078 | 126.59409 | 7150 ft | 251 kts | 290° |
| 2026-04-25 01:33 | 37.64710 | 126.57372 | 6898 ft | 249 kts | 290° |
| 2026-04-25 01:33 | 37.65346 | 126.55346 | 6626 ft | 249 kts | 290° |
| 2026-04-25 01:33 | 37.65983 | 126.53326 | 6366 ft | 247 kts | 290° |
| 2026-04-25 01:34 | 37.66621 | 126.51331 | 5999 ft | 243 kts | 291° |
| 2026-04-25 01:34 | 37.67132 | 126.49326 | 5423 ft | 240 kts | 279° |
| 2026-04-25 01:34 | 37.67386 | 126.47253 | 4865 ft | 238 kts | 276° |
| 2026-04-25 01:34 | 37.67590 | 126.45197 | 4334 ft | 236 kts | 276° |
| 2026-04-25 01:35 | 37.67798 | 126.43168 | 3847 ft | 233 kts | 276° |
| 2026-04-25 01:35 | 37.67823 | 126.41151 | 3498 ft | 231 kts | 258° |
| 2026-04-25 01:35 | 37.67210 | 126.39307 | 3274 ft | 228 kts | 239° |
| 2026-04-25 01:35 | 37.66371 | 126.37599 | 3139 ft | 228 kts | 238° |
| 2026-04-25 01:36 | 37.65544 | 126.35957 | 2927 ft | 217 kts | 238° |
| 2026-04-25 01:36 | 37.64742 | 126.34351 | 2761 ft | 214 kts | 238° |
| 2026-04-25 01:36 | 37.63970 | 126.32806 | 2527 ft | 204 kts | 238° |
| 2026-04-25 01:36 | 37.63184 | 126.31320 | 2382 ft | 201 kts | 231° |
| 2026-04-25 01:37 | 37.62128 | 126.30271 | 2202 ft | 189 kts | 204° |
| 2026-04-25 01:37 | 37.60898 | 126.30147 | 2132 ft | 176 kts | 171° |
| 2026-04-25 01:37 | 37.59729 | 126.30611 | 2115 ft | 179 kts | 156° |
| 2026-04-25 01:37 | 37.58686 | 126.31416 | 2095 ft | 171 kts | 147° |
| 2026-04-25 01:38 | 37.57726 | 126.32257 | 2099 ft | 167 kts | 148° |
| 2026-04-25 01:38 | 37.56774 | 126.33090 | 2102 ft | 167 kts | 146° |
| 2026-04-25 01:38 | 37.55832 | 126.33933 | 2079 ft | 168 kts | 146° |
| 2026-04-25 01:38 | 37.54876 | 126.34779 | 1877 ft | 167 kts | 146° |
| 2026-04-25 01:39 | 37.53956 | 126.35596 | 1659 ft | 156 kts | 146° |
| 2026-04-25 01:39 | 37.53114 | 126.36349 | 1446 ft | 142 kts | 146° |
| 2026-04-25 01:39 | 37.52328 | 126.37052 | 1270 ft | 136 kts | 146° |
| 2026-04-25 01:39 | 37.51555 | 126.37742 | 1082 ft | 137 kts | 146° |
| 2026-04-25 01:40 | 37.50781 | 126.38434 | 900 ft | 136 kts | 145° |
| 2026-04-25 01:40 | 37.50011 | 126.39122 | 720 ft | 136 kts | 144° |
| 2026-04-25 01:40 | 37.49246 | 126.39806 | 542 ft | 135 kts | 144° |
| 2026-04-25 01:40 | 37.48482 | 126.40488 | 369 ft | 135 kts | 144° |
| 2026-04-25 01:41 | 37.47723 | 126.41166 | 183 ft | 134 kts | 144° |
| 2026-04-25 01:41 | 37.46971 | 126.41838 | 41 ft | 132 kts | 144° |
| 2026-04-25 01:41 | 37.46395 | 126.42366 | 37 ft | 62 kts | 144° |
| 2026-04-25 01:41 | 37.46202 | 126.42605 | 37 ft | 28 kts | 86° |
| 2026-04-25 01:42 | 37.46256 | 126.42801 | 37 ft | 23 kts | 62° |
| 2026-04-25 01:42 | 37.46339 | 126.42978 | 37 ft | 23 kts | 61° |
| 2026-04-25 01:42 | 37.46394 | 126.43163 | 37 ft | 20 kts | 69° |
| 2026-04-25 01:42 | 37.46400 | 126.43181 | 37 ft | 0 kts | 69° |